Time;durP1;ratioP1;P1;durP2;ratioP2;P2;SDS_P1;SDS_P2;PMS_P1;PMS_P2;Temp;Humidity;BMP_temperature;BMP_pressure;BME280_temperature;BME280_humidity;BME280_pressure;Samples;Min_cycle;Max_cycle;Signal;HPM_P1;HPM_P2
2022/07/25 00:00:07;;;;;;;7.03;4.78;;;24.30;84.80;;;;;;5117350;28;20501;-71
2022/07/25 00:02:33;;;;;;;7.65;4.57;;;24.30;85.00;;;;;;5117495;28;20570;-75
2022/07/25 00:04:59;;;;;;;7.38;5.20;;;;;;;;;;5117387;28;20071;-75
2022/07/25 00:07:27;;;;;;;5.85;4.85;;;24.00;85.60;;;;;;5098677;28;20518;-73
2022/07/25 00:09:53;;;;;;;7.03;5.15;;;23.90;86.70;;;;;;5116902;28;20084;-73
2022/07/25 00:12:26;;;;;;;8.77;4.93;;;23.90;87.00;;;;;;5098547;28;20082;-74
2022/07/25 00:14:52;;;;;;;8.15;5.10;;;24.10;86.40;;;;;;5116530;28;20053;-70
2022/07/25 00:17:17;;;;;;;6.97;5.30;;;24.10;86.20;;;;;;5098597;28;20040;-74
2022/07/25 00:19:43;;;;;;;6.25;4.60;;;24.10;86.10;;;;;;5116983;28;20040;-72
2022/07/25 00:22:09;;;;;;;7.50;4.90;;;24.10;86.30;;;;;;5098763;28;20055;-74
2022/07/25 00:24:35;;;;;;;7.03;5.18;;;23.90;86.90;;;;;;5116871;28;20114;-73
2022/07/25 00:27:01;;;;;;;8.10;4.97;;;23.70;91.70;;;;;;5113837;28;20039;-77
2022/07/25 00:29:27;;;;;;;7.35;5.45;;;23.90;88.20;;;;;;5085474;28;20048;-77
2022/07/25 00:31:53;;;;;;;9.45;5.10;;;23.90;87.00;;;;;;5095553;28;20043;-77
2022/07/25 00:34:19;;;;;;;7.45;5.30;;;24.10;90.20;;;;;;5096882;27;20036;-73
2022/07/25 00:36:45;;;;;;;7.78;5.18;;;24.10;90.70;;;;;;5137178;27;20042;-77
2022/07/25 00:39:11;;;;;;;7.28;5.22;;;24.00;90.50;;;;;;5137020;27;20035;-77
2022/07/25 00:41:37;;;;;;;6.50;5.03;;;24.10;90.10;;;;;;5137277;27;20071;-77
2022/07/25 00:44:02;;;;;;;6.03;4.35;;;24.10;91.10;;;;;;5137065;27;20050;-78
2022/07/25 00:46:28;;;;;;;8.15;4.70;;;23.90;91.70;;;;;;5137090;27;20054;-78
2022/07/25 00:48:54;;;;;;;8.23;4.45;;;;;;;;;;5137025;27;20043;-78
2022/07/25 00:51:20;;;;;;;7.45;4.85;;;23.80;98.90;;;;;;5137062;27;20074;-74
2022/07/25 00:53:46;;;;;;;8.63;5.50;;;23.60;88.90;;;;;;5137044;27;20049;-73
2022/07/25 00:56:12;;;;;;;10.55;5.28;;;23.60;88.90;;;;;;5136853;27;20406;-74
2022/07/25 00:58:38;;;;;;;7.57;5.20;;;23.70;88.60;;;;;;5118329;27;20042;-76
2022/07/25 01:01:04;;;;;;;7.20;5.32;;;23.60;89.00;;;;;;5136748;27;20486;-75
2022/07/25 01:03:30;;;;;;;7.05;5.25;;;23.60;89.70;;;;;;5136813;27;20364;-76
2022/07/25 01:05:55;;;;;;;6.82;5.00;;;23.70;89.30;;;;;;5118409;27;20035;-74
2022/07/25 01:08:21;;;;;;;9.00;5.90;;;23.30;90.00;;;;;;5118389;27;20041;-75
2022/07/25 01:10:48;;;;;;;7.38;5.30;;;23.30;90.20;;;;;;5118072;27;20114;-75
2022/07/25 01:13:15;;;;;;;7.82;5.18;;;23.40;90.10;;;;;;5118044;27;20065;-74
2022/07/25 01:15:42;;;;;;;7.90;5.07;;;23.40;90.10;;;;;;5136621;27;20426;-74
2022/07/25 01:18:08;;;;;;;7.68;5.20;;;23.20;90.20;;;;;;5136477;27;20031;-73
2022/07/25 01:20:34;;;;;;;8.15;5.20;;;23.30;90.40;;;;;;5118027;27;20039;-72
2022/07/25 01:23:00;;;;;;;7.63;5.30;;;23.40;90.10;;;;;;5117510;27;20039;-72
2022/07/25 01:25:26;;;;;;;8.20;5.18;;;23.60;90.10;;;;;;5118328;27;20050;-74
2022/07/25 01:27:53;;;;;;;7.18;4.60;;;23.70;89.60;;;;;;5117793;27;20581;-74
2022/07/25 01:30:21;;;;;;;6.82;5.07;;;23.80;89.40;;;;;;5136136;27;20035;-75
2022/07/25 01:32:47;;;;;;;7.10;4.75;;;23.60;90.30;;;;;;5135996;27;20043;-71
2022/07/25 01:35:13;;;;;;;7.28;5.43;;;23.50;90.50;;;;;;5117768;27;20038;-74
2022/07/25 01:37:40;;;;;;;8.02;4.97;;;23.20;90.50;;;;;;5136148;27;20501;-75
2022/07/25 01:40:07;;;;;;;7.20;4.72;;;23.10;90.70;;;;;;5117671;27;20455;-73
2022/07/25 01:42:33;;;;;;;9.30;5.85;;;23.00;90.70;;;;;;5117935;27;20038;-76
2022/07/25 01:44:59;;;;;;;7.50;4.82;;;22.90;91.00;;;;;;5136103;27;20031;-73
2022/07/25 01:47:25;;;;;;;7.70;5.18;;;22.80;91.30;;;;;;5117411;27;20031;-76
2022/07/25 01:49:51;;;;;;;6.43;4.88;;;22.90;90.90;;;;;;5135806;27;20035;-76
2022/07/25 01:52:17;;;;;;;9.18;5.32;;;23.20;90.50;;;;;;5116950;27;20039;-72
2022/07/25 01:54:43;;;;;;;5.82;4.43;;;23.40;90.20;;;;;;5135309;27;20501;-74
2022/07/25 01:57:12;;;;;;;10.88;4.93;;;23.50;90.20;;;;;;5116701;27;20040;-75
2022/07/25 01:59:40;;;;;;;6.60;5.10;;;23.40;90.10;;;;;;5117158;27;20055;-75
2022/07/25 02:02:07;;;;;;;8.55;4.80;;;23.50;90.20;;;;;;5124635;27;20455;-75
2022/07/25 02:04:33;;;;;;;7.55;4.70;;;23.30;90.60;;;;;;5115209;28;20058;-75
2022/07/25 02:06:59;;;;;;;9.40;5.00;;;23.00;90.80;;;;;;5113915;28;20035;-72
2022/07/25 02:09:25;;;;;;;8.30;5.47;;;23.00;91.20;;;;;;5117331;27;20047;-75
2022/07/25 02:11:51;;;;;;;6.65;5.13;;;23.10;91.10;;;;;;5135259;27;20524;-75
2022/07/25 02:14:17;;;;;;;7.07;5.45;;;23.00;90.60;;;;;;5116476;27;20043;-74
2022/07/25 02:16:42;;;;;;;7.53;5.20;;;23.10;90.70;;;;;;5134941;27;20042;-73
2022/07/25 02:19:08;;;;;;;6.53;5.00;;;23.20;90.40;;;;;;5116811;27;20035;-74
2022/07/25 02:21:34;;;;;;;6.38;5.07;;;23.30;90.10;;;;;;5135275;27;20043;-73
2022/07/25 02:24:00;;;;;;;6.78;4.82;;;23.10;90.60;;;;;;5135226;27;20035;-71
2022/07/25 02:26:26;;;;;;;6.93;5.43;;;23.00;90.80;;;;;;5135014;27;20042;-72
2022/07/25 02:28:52;;;;;;;8.60;5.40;;;22.80;90.70;;;;;;5116496;27;20053;-71
2022/07/25 02:31:18;;;;;;;8.07;4.88;;;22.60;91.30;;;;;;5134759;27;20122;-71
2022/07/25 02:33:43;;;;;;;8.13;5.18;;;22.50;91.40;;;;;;5134076;27;20475;-71
2022/07/25 02:36:11;;;;;;;7.88;5.18;;;;;;;;;;5135080;27;20185;-71
2022/07/25 02:38:37;;;;;;;5.72;4.72;;;22.40;91.30;;;;;;5134832;27;20050;-66
2022/07/25 02:41:03;;;;;;;6.70;4.75;;;22.50;91.40;;;;;;5134956;27;20100;-74
2022/07/25 02:43:29;;;;;;;6.13;4.68;;;22.50;90.90;;;;;;5134769;27;20410;-68
2022/07/25 02:45:55;;;;;;;6.30;4.40;;;22.60;90.90;;;;;;5116963;27;20032;-73
2022/07/25 02:48:21;;;;;;;7.95;4.72;;;22.50;90.70;;;;;;5114238;28;20055;-74
2022/07/25 02:50:47;;;;;;;6.35;4.85;;;22.80;90.30;;;;;;5113997;28;20367;-72
2022/07/25 02:53:13;;;;;;;8.02;5.63;;;22.80;90.30;;;;;;5095552;28;20043;-74
2022/07/25 02:55:38;;;;;;;7.53;5.25;;;22.70;90.40;;;;;;5113893;28;20514;-74
2022/07/25 02:58:05;;;;;;;6.80;4.75;;;22.70;90.90;;;;;;5113747;28;20465;-74
2022/07/25 03:00:30;;;;;;;8.05;5.00;;;22.70;90.80;;;;;;5113653;28;20046;-74
2022/07/25 03:02:57;;;;;;;6.38;4.72;;;22.70;91.10;;;;;;5113731;28;20047;-73
2022/07/25 03:05:23;;;;;;;7.07;5.20;;;22.50;91.10;;;;;;5095938;28;20031;-73
2022/07/25 03:07:49;;;;;;;8.35;5.13;;;22.30;91.50;;;;;;5095355;28;20035;-75
2022/07/25 03:10:15;;;;;;;6.75;4.93;;;22.20;91.90;;;;;;5095623;28;20441;-77
2022/07/25 03:12:41;;;;;;;5.85;4.30;;;22.40;91.50;;;;;;5113652;28;20054;-75
2022/07/25 03:15:08;;;;;;;7.07;5.13;;;22.60;91.30;;;;;;5113673;28;20120;-75
2022/07/25 03:17:34;;;;;;;8.57;5.35;;;22.60;91.60;;;;;;5109436;28;20052;-74
2022/07/25 03:20:00;;;;;;;7.30;5.05;;;22.50;91.50;;;;;;5105225;28;20092;-74
2022/07/25 03:22:26;;;;;;;6.07;4.47;;;22.50;91.80;;;;;;5093492;28;20050;-74
2022/07/25 03:24:54;;;;;;;7.03;5.00;;;22.30;91.90;;;;;;5112452;28;20024;-70
2022/07/25 03:27:20;;;;;;;8.30;5.05;;;22.20;92.10;;;;;;5094925;28;20127;-71
2022/07/25 03:29:45;;;;;;;7.47;5.32;;;22.20;92.50;;;;;;5112596;28;20138;-71
2022/07/25 03:32:11;;;;;;;7.20;5.18;;;22.30;91.90;;;;;;5113455;28;20506;-74
2022/07/25 03:34:37;;;;;;;8.40;5.35;;;22.40;91.80;;;;;;5113199;28;20043;-71
2022/07/25 03:37:04;;;;;;;7.95;5.10;;;22.40;91.70;;;;;;5113175;28;20063;-72
2022/07/25 03:39:30;;;;;;;7.97;5.22;;;22.40;91.50;;;;;;5095146;28;20050;-74
2022/07/25 03:41:56;;;;;;;8.90;5.57;;;22.40;91.60;;;;;;5113528;28;20043;-74
2022/07/25 03:44:23;;;;;;;6.50;4.40;;;22.20;92.40;;;;;;5113490;28;20039;-75
2022/07/25 03:46:49;;;;;;;7.00;4.97;;;21.90;92.70;;;;;;5095547;28;20043;-73
2022/07/25 03:49:15;;;;;;;10.18;5.00;;;21.70;92.40;;;;;;5113289;28;20051;-73
2022/07/25 03:51:41;;;;;;;6.18;4.53;;;21.70;92.10;;;;;;5113411;28;20150;-76
2022/07/25 03:54:12;;;;;;;6.40;4.18;;;21.70;91.90;;;;;;5095003;28;20039;-74
2022/07/25 03:56:40;;;;;;;7.05;5.13;;;21.70;91.90;;;;;;5095026;28;20032;-72
2022/07/25 03:59:06;;;;;;;9.27;5.90;;;21.70;92.10;;;;;;5113164;28;20047;-77
2022/07/25 04:01:33;;;;;;;10.57;4.93;;;21.80;92.00;;;;;;5113056;28;20040;-76
2022/07/25 04:03:59;;;;;;;7.93;4.80;;;21.60;92.20;;;;;;5113167;28;20442;-77
2022/07/25 04:06:25;;;;;;;6.97;4.85;;;21.60;92.20;;;;;;5094955;28;20028;-77
2022/07/25 04:08:52;;;;;;;7.78;5.75;;;21.80;91.70;;;;;;5113232;28;20055;-74
2022/07/25 04:11:18;;;;;;;7.40;5.32;;;21.90;91.40;;;;;;5113129;28;20039;-75
2022/07/25 04:13:44;;;;;;;9.52;5.28;;;21.90;91.40;;;;;;5094864;28;20056;-75
2022/07/25 04:16:10;;;;;;;7.00;4.93;;;21.80;91.50;;;;;;5113105;28;20039;-74
2022/07/25 04:18:36;;;;;;;6.50;4.95;;;21.90;91.20;;;;;;5113033;28;20108;-72
2022/07/25 04:21:03;;;;;;;7.55;5.22;;;21.90;91.20;;;;;;5113140;28;20422;-73
2022/07/25 04:23:30;;;;;;;8.02;5.45;;;21.80;91.20;;;;;;5113164;28;20171;-73
2022/07/25 04:25:56;;;;;;;9.20;5.70;;;21.90;91.10;;;;;;5112906;28;20383;-74
2022/07/25 04:28:23;;;;;;;7.32;5.40;;;21.90;91.20;;;;;;5112587;28;20043;-70
2022/07/25 04:30:49;;;;;;;6.05;4.82;;;21.80;91.30;;;;;;5109988;28;20583;-74
2022/07/25 04:33:15;;;;;;;8.88;5.07;;;21.70;91.40;;;;;;5091816;28;20134;-74
2022/07/25 04:35:41;;;;;;;6.82;5.25;;;21.60;91.50;;;;;;5110929;28;20039;-74
2022/07/25 04:38:07;;;;;;;8.85;5.13;;;21.50;91.70;;;;;;5112224;28;20100;-71
2022/07/25 04:40:33;;;;;;;8.38;5.75;;;21.40;92.00;;;;;;5114948;28;20043;-69
2022/07/25 04:42:59;;;;;;;6.38;4.97;;;21.40;92.10;;;;;;5116531;28;20043;-72
2022/07/25 04:45:24;;;;;;;7.47;5.15;;;21.20;92.50;;;;;;5119127;27;20074;-72
2022/07/25 04:47:50;;;;;;;6.32;4.80;;;21.10;92.90;;;;;;5112656;27;20039;-71
2022/07/25 04:50:16;;;;;;;7.75;6.05;;;21.10;93.00;;;;;;5118243;27;20073;-70
2022/07/25 04:52:42;;;;;;;6.95;5.13;;;21.30;92.90;;;;;;5118227;27;20035;-72
2022/07/25 04:55:08;;;;;;;6.65;5.45;;;21.30;92.80;;;;;;5136856;27;20078;-72
2022/07/25 04:57:34;;;;;;;7.95;5.25;;;21.50;92.30;;;;;;5118199;27;20046;-71
2022/07/25 05:00:00;;;;;;;6.13;4.75;;;21.60;92.20;;;;;;5118265;27;20043;-72
2022/07/25 05:02:26;;;;;;;7.70;5.63;;;21.40;92.60;;;;;;5118385;27;20085;-74
2022/07/25 05:04:52;;;;;;;9.25;5.05;;;21.50;92.70;;;;;;5126052;27;20039;-73
2022/07/25 05:07:18;;;;;;;9.02;5.88;;;21.50;92.70;;;;;;5118811;27;20047;-74
2022/07/25 05:09:44;;;;;;;4.90;4.30;;;21.70;92.50;;;;;;5116196;28;20054;-74
2022/07/25 05:12:10;;;;;;;7.28;4.78;;;21.80;92.20;;;;;;5097764;28;20405;-76
2022/07/25 05:14:37;;;;;;;8.63;5.65;;;22.00;92.60;;;;;;5115977;28;20031;-73
2022/07/25 05:17:03;;;;;;;6.93;5.43;;;22.20;91.70;;;;;;5116000;28;20035;-76
2022/07/25 05:19:29;;;;;;;7.75;5.00;;;22.30;91.70;;;;;;5114685;28;20533;-72
2022/07/25 05:21:54;;;;;;;8.20;5.40;;;22.50;91.60;;;;;;5115324;28;20044;-75
2022/07/25 05:24:21;;;;;;;10.07;6.40;;;22.40;91.90;;;;;;5115477;28;20067;-77
2022/07/25 05:26:48;;;;;;;7.22;5.03;;;22.50;91.70;;;;;;5115605;28;20036;-75
2022/07/25 05:29:14;;;;;;;7.40;5.07;;;22.50;91.90;;;;;;5114983;28;20051;-73
2022/07/25 05:31:40;;;;;;;7.20;5.22;;;22.80;91.40;;;;;;5115564;28;20063;-75
2022/07/25 05:34:06;;;;;;;7.10;4.95;;;;;;;;;;5115635;28;20571;-74
2022/07/25 05:36:32;;;;;;;7.85;5.30;;;23.20;90.80;;;;;;5115542;28;20498;-76
2022/07/25 05:38:59;;;;;;;7.38;5.20;;;;;;;;;;5115496;28;20130;-76
2022/07/25 05:41:25;;;;;;;8.25;5.15;;;23.60;91.50;;;;;;5114543;28;20048;-70
2022/07/25 05:43:51;;;;;;;7.55;4.57;;;23.70;91.50;;;;;;5115030;28;20566;-71
2022/07/25 05:46:17;;;;;;;10.38;5.28;;;24.00;91.20;;;;;;5115340;28;20130;-69
2022/07/25 05:48:43;;;;;;;8.27;5.47;;;24.20;90.10;;;;;;5115217;28;20043;-72
2022/07/25 05:51:09;;;;;;;9.57;5.65;;;24.50;90.20;;;;;;5114659;28;20043;-71
2022/07/25 05:53:35;;;;;;;6.63;5.28;;;24.50;90.30;;;;;;5096944;28;20410;-72
2022/07/25 05:56:01;;;;;;;6.95;5.15;;;24.20;91.30;;;;;;5115216;28;20035;-72
2022/07/25 05:58:27;;;;;;;7.07;4.97;;;24.00;91.80;;;;;;5114986;28;20067;-72
2022/07/25 06:00:53;;;;;;;7.88;4.97;;;23.90;93.10;;;;;;5115288;28;20495;-71
2022/07/25 06:03:18;;;;;;;7.18;5.10;;;23.80;92.50;;;;;;5115147;28;20050;-71
2022/07/25 06:05:45;;;;;;;7.00;4.82;;;24.00;92.00;;;;;;5115089;28;20051;-73
2022/07/25 06:08:12;;;;;;;8.40;4.90;;;24.50;91.80;;;;;;5114911;28;20401;-72
2022/07/25 06:10:39;;;;;;;10.20;4.90;;;24.90;91.70;;;;;;5115005;28;20045;-70
2022/07/25 06:13:04;;;;;;;6.90;4.93;;;25.10;91.80;;;;;;5096547;28;20035;-70
2022/07/25 06:15:30;;;;;;;7.57;5.32;;;25.40;91.30;;;;;;5114780;28;20154;-71
2022/07/25 06:17:56;;;;;;;8.30;5.75;;;25.50;91.30;;;;;;5114713;28;20043;-70
2022/07/25 06:20:22;;;;;;;7.35;5.20;;;25.70;91.60;;;;;;5096521;28;20463;-71
2022/07/25 06:22:48;;;;;;;8.85;5.15;;;25.60;90.80;;;;;;5114481;28;20448;-70
2022/07/25 06:25:14;;;;;;;8.48;5.25;;;25.80;91.40;;;;;;5096257;28;20134;-70
2022/07/25 06:27:40;;;;;;;6.63;5.10;;;25.90;91.60;;;;;;5096044;28;20047;-69
2022/07/25 06:30:08;;;;;;;9.13;5.50;;;25.90;91.50;;;;;;5114428;28;20406;-70
2022/07/25 06:32:33;;;;;;;8.85;5.20;;;26.10;91.10;;;;;;5114189;28;20416;-71
2022/07/25 06:34:59;;;;;;;8.77;5.30;;;26.00;91.00;;;;;;5096126;28;20046;-70
2022/07/25 06:37:25;;;;;;;9.82;6.05;;;25.80;91.40;;;;;;5114419;28;20406;-70
2022/07/25 06:39:51;;;;;;;8.68;5.38;;;26.10;91.10;;;;;;5114391;28;20138;-72
2022/07/25 06:42:17;;;;;;;13.45;5.60;;;26.60;91.60;;;;;;5114318;28;20554;-71
2022/07/25 06:44:43;;;;;;;9.40;6.15;;;26.80;91.60;;;;;;5114315;28;20410;-72
2022/07/25 06:47:11;;;;;;;10.38;5.82;;;27.00;91.30;;;;;;5114338;28;20035;-71
2022/07/25 06:49:41;;;;;;;13.00;5.72;;;27.20;91.50;;;;;;5114140;28;20112;-71
2022/07/25 06:52:07;;;;;;;8.57;6.07;;;27.30;91.10;;;;;;5095670;28;20043;-72
2022/07/25 06:54:33;;;;;;;7.68;5.20;;;27.30;90.20;;;;;;5095515;28;20040;-75
2022/07/25 06:56:59;;;;;;;7.95;5.28;;;27.60;89.40;;;;;;5113793;28;20448;-67
2022/07/25 06:59:25;;;;;;;6.25;5.07;;;27.50;88.90;;;;;;5113805;28;20039;-67
2022/07/25 07:01:51;;;;;;;8.55;5.18;;;27.60;86.60;;;;;;5114221;28;20410;-67
2022/07/25 07:04:17;;;;;;;7.65;4.93;;;27.70;87.00;;;;;;5114062;28;20044;-67
2022/07/25 07:06:43;;;;;;;7.05;4.88;;;27.70;84.60;;;;;;5113927;28;20490;-67
2022/07/25 07:09:09;;;;;;;7.20;5.40;;;27.90;84.70;;;;;;5113893;28;20059;-67
2022/07/25 07:11:35;;;;;;;7.95;5.03;;;27.90;84.40;;;;;;5113805;28;20066;-67
2022/07/25 07:14:02;;;;;;;5.38;4.65;;;27.90;83.30;;;;;;5113800;28;20039;-66
2022/07/25 07:16:29;;;;;;;7.03;5.03;;;28.10;84.90;;;;;;5113763;28;20040;-67
2022/07/25 07:18:55;;;;;;;6.78;5.55;;;28.30;83.10;;;;;;5113853;28;20039;-67
2022/07/25 07:21:21;;;;;;;6.57;4.57;;;28.20;82.80;;;;;;5113861;28;20051;-67
2022/07/25 07:23:46;;;;;;;6.95;4.47;;;28.30;79.00;;;;;;5113807;28;20043;-67
2022/07/25 07:26:12;;;;;;;6.63;5.22;;;28.30;80.30;;;;;;5113806;28;20039;-67
2022/07/25 07:28:38;;;;;;;6.47;4.93;;;28.60;81.10;;;;;;5113919;28;20379;-68
2022/07/25 07:31:04;;;;;;;5.93;4.97;;;28.80;79.50;;;;;;5113852;28;20059;-67
2022/07/25 07:33:32;;;;;;;5.57;4.30;;;28.80;79.20;;;;;;5113790;28;20074;-67
2022/07/25 07:35:58;;;;;;;5.45;4.38;;;28.90;78.70;;;;;;5113640;28;20050;-67
2022/07/25 07:38:28;;;;;;;5.80;4.57;;;28.80;77.70;;;;;;5112969;28;20162;-67
2022/07/25 07:40:54;;;;;;;7.60;5.00;;;29.00;77.80;;;;;;5095364;28;20039;-67
2022/07/25 07:43:20;;;;;;;7.45;5.63;;;29.40;79.00;;;;;;5094847;28;20027;-67
2022/07/25 07:45:46;;;;;;;6.70;4.40;;;29.80;79.60;;;;;;5113631;28;20035;-67
2022/07/25 07:48:12;;;;;;;7.68;5.40;;;29.90;78.20;;;;;;5113614;28;20051;-67
2022/07/25 07:50:39;;;;;;;8.10;4.55;;;30.20;79.20;;;;;;5113581;28;20050;-67
2022/07/25 07:53:06;;;;;;;8.43;5.70;;;;;;;;;;5113073;28;20550;-67
2022/07/25 07:55:54;;;;;;;6.75;5.07;;;30.60;97.20;;;;;;5113491;28;20047;-67
2022/07/25 07:58:20;;;;;;;5.15;4.25;;;30.60;78.30;;;;;;5113397;28;20402;-67
2022/07/25 08:00:47;;;;;;;8.15;5.72;;;;;;;;;;5113511;28;20204;-67
2022/07/25 08:03:17;;;;;;;7.28;5.20;;;;;;;;;;5113571;28;20042;-67
2022/07/25 08:05:44;;;;;;;6.72;4.30;;;;;;;;;;5113418;28;20513;-67
2022/07/25 08:08:12;;;;;;;6.45;4.78;;;30.70;95.30;;;;;;5113357;28;20566;-67
2022/07/25 08:10:40;;;;;;;6.63;4.72;;;31.00;76.80;;;;;;5113213;28;20038;-68
2022/07/25 08:13:21;;;;;;;8.05;4.72;;;30.90;76.00;;;;;;5113054;28;20043;-67
2022/07/25 08:15:51;;;;;;;5.65;4.30;;;30.20;76.80;;;;;;5115927;28;20036;-68
2022/07/25 08:18:17;;;;;;;5.28;4.32;;;30.10;77.00;;;;;;5117200;28;20829;-68
2022/07/25 08:20:47;;;;;;;5.88;4.25;;;30.20;76.90;;;;;;5099147;28;20043;-68
2022/07/25 08:23:13;;;;;;;6.13;4.43;;;29.70;76.50;;;;;;5098990;28;20504;-66
2022/07/25 08:25:39;;;;;;;5.35;4.50;;;30.00;77.50;;;;;;5117250;28;20043;-67
2022/07/25 08:28:05;;;;;;;6.38;4.57;;;30.30;78.00;;;;;;5117011;28;20483;-68
2022/07/25 08:30:31;;;;;;;5.65;4.40;;;30.30;77.80;;;;;;5117084;28;20046;-68
2022/07/25 08:33:00;;;;;;;5.63;3.45;;;30.30;78.00;;;;;;5115174;28;20043;-67
2022/07/25 08:35:27;;;;;;;5.43;3.97;;;30.20;76.40;;;;;;5108001;28;20035;-70
2022/07/25 08:37:53;;;;;;;6.05;4.18;;;30.70;76.40;;;;;;5094631;28;20048;-70
2022/07/25 08:40:21;;;;;;;5.05;3.30;;;30.90;74.90;;;;;;5095358;28;20044;-68
2022/07/25 08:42:47;;;;;;;5.45;3.30;;;;;;;;;;5078594;28;20047;-69
2022/07/25 08:45:18;;;;;;;3.70;3.05;;;;;;;;;;5096515;28;20097;-70
2022/07/25 08:47:44;;;;;;;5.18;3.35;;;;;;;;;;5096204;28;20051;-70
2022/07/25 08:50:12;;;;;;;3.88;3.38;;;;;;;;;;5096303;28;20078;-70
2022/07/25 08:52:38;;;;;;;6.43;3.40;;;;;;;;;;5096323;28;20127;-70
2022/07/25 08:55:09;;;;;;;4.25;3.28;;;;;;;;;;5096365;28;20059;-70
2022/07/25 08:57:37;;;;;;;3.60;2.90;;;;;;;;;;5096317;28;20063;-68
2022/07/25 09:00:05;;;;;;;4.15;3.35;;;;;;;;;;5096103;28;20154;-69
2022/07/25 09:02:32;;;;;;;3.55;3.03;;;;;;;;;;5096136;28;20453;-70
2022/07/25 09:04:58;;;;;;;6.78;3.42;;;;;;;;;;5077921;28;20125;-70
2022/07/25 09:07:40;;;;;;;4.35;3.17;;;31.40;94.20;;;;;;5095932;28;20044;-68
2022/07/25 09:10:23;;;;;;;3.67;2.90;;;;;;;;;;5095869;28;20054;-69
2022/07/25 09:12:53;;;;;;;8.27;3.03;;;30.40;87.20;;;;;;5095758;28;20448;-67
2022/07/25 09:15:31;;;;;;;4.38;3.28;;;29.80;72.70;;;;;;5095838;28;20047;-70
2022/07/25 09:17:59;;;;;;;4.07;3.30;;;29.70;73.50;;;;;;5095753;28;20123;-69
2022/07/25 09:20:40;;;;;;;4.70;3.20;;;29.50;73.30;;;;;;5095709;28;20040;-70
2022/07/25 09:23:06;;;;;;;3.85;3.08;;;29.40;73.20;;;;;;5095573;28;20567;-69
2022/07/25 09:25:32;;;;;;;3.17;2.70;;;29.50;74.20;;;;;;5095288;28;20036;-68
2022/07/25 09:28:18;;;;;;;3.65;2.85;;;29.70;73.60;;;;;;5094731;28;20498;-66
2022/07/25 09:30:58;;;;;;;3.90;3.03;;;30.40;73.70;;;;;;5095492;28;20036;-69
2022/07/25 09:33:25;;;;;;;4.82;3.45;;;30.70;71.20;;;;;;5095317;28;20040;-68
2022/07/25 09:35:52;;;;;;;6.57;3.35;;;30.70;72.20;;;;;;5095606;28;20109;-69
2022/07/25 09:38:19;;;;;;;4.47;2.50;;;31.30;70.60;;;;;;5096455;28;20040;-68
2022/07/25 09:40:58;;;;;;;8.35;2.92;;;31.30;70.30;;;;;;5115647;28;20039;-68
2022/07/25 09:43:41;;;;;;;3.90;2.85;;;31.00;69.70;;;;;;5115232;28;20047;-70
2022/07/25 09:46:09;;;;;;;3.50;2.75;;;31.00;69.10;;;;;;5115688;28;20054;-67
2022/07/25 09:48:36;;;;;;;4.30;3.22;;;30.60;69.70;;;;;;5115606;28;20047;-68
2022/07/25 09:51:02;;;;;;;3.17;2.20;;;30.40;69.20;;;;;;5115594;28;20502;-68
2022/07/25 09:53:28;;;;;;;4.45;2.58;;;29.80;70.70;;;;;;5115545;28;20509;-68
2022/07/25 09:55:55;;;;;;;6.75;2.70;;;29.90;70.70;;;;;;5115515;28;20042;-69
2022/07/25 09:58:26;;;;;;;6.10;2.80;;;30.10;70.90;;;;;;5097169;28;20465;-69
2022/07/25 10:00:59;;;;;;;4.82;2.97;;;30.40;72.00;;;;;;5115408;28;20388;-69
2022/07/25 10:03:36;;;;;;;4.53;2.78;;;30.20;70.70;;;;;;5115228;28;20170;-68
2022/07/25 10:06:19;;;;;;;4.00;3.00;;;30.90;69.30;;;;;;5097100;28;20469;-68
2022/07/25 10:08:46;;;;;;;5.45;3.25;;;31.30;69.30;;;;;;5115306;28;20086;-69
2022/07/25 10:11:26;;;;;;;7.57;2.60;;;31.50;70.50;;;;;;5115365;28;20039;-69
2022/07/25 10:13:53;;;;;;;3.90;2.83;;;31.60;69.80;;;;;;5097154;28;20040;-67
2022/07/25 10:16:24;;;;;;;4.45;2.63;;;31.80;69.20;;;;;;5115218;28;20037;-69
2022/07/25 10:18:52;;;;;;;7.72;2.67;;;32.10;70.50;;;;;;5114932;28;20047;-64
2022/07/25 10:21:20;;;;;;;3.60;2.90;;;31.80;70.50;;;;;;5114884;28;20114;-67
2022/07/25 10:24:04;;;;;;;3.30;2.13;;;31.70;70.20;;;;;;5114853;28;20123;-64
2022/07/25 10:26:30;;;;;;;2.50;2.28;;;32.00;68.20;;;;;;5115024;28;20039;-65
2022/07/25 10:28:57;;;;;;;3.95;3.05;;;31.30;68.20;;;;;;5114918;28;20052;-63
2022/07/25 10:31:32;;;;;;;2.58;2.17;;;31.90;69.80;;;;;;5114837;28;20044;-72
2022/07/25 10:34:01;;;;;;;3.28;2.63;;;31.90;70.20;;;;;;5114978;28;20031;-73
2022/07/25 10:36:41;;;;;;;4.07;2.80;;;31.00;67.90;;;;;;5114893;28;20039;-71
2022/07/25 10:39:07;;;;;;;;;;;31.30;70.30;;;;;;5115268;28;20043;-67
2022/07/25 10:41:41;;;;;;;4.28;3.15;;;30.80;70.90;;;;;;5114611;28;20265;-73
2022/07/25 10:44:14;;;;;;;5.30;2.40;;;31.10;70.60;;;;;;5114424;28;20443;-75
2022/07/25 10:46:45;;;;;;;4.57;3.15;;;31.00;70.40;;;;;;5114685;28;20040;-72
2022/07/25 10:49:20;;;;;;;4.35;3.03;;;31.20;68.10;;;;;;5114587;28;20053;-64
2022/07/25 10:51:58;;;;;;;3.75;2.80;;;30.80;70.90;;;;;;5114615;28;20112;-74
2022/07/25 10:54:24;;;;;;;4.55;3.22;;;31.20;68.20;;;;;;5114417;28;20039;-66
2022/07/25 10:56:57;;;;;;;4.32;2.72;;;31.00;69.80;;;;;;5114424;28;20059;-73
2022/07/25 10:59:34;;;;;;;5.03;2.67;;;31.20;68.90;;;;;;5114352;28;20451;-79
2022/07/25 11:02:01;;;;;;;4.47;3.05;;;31.40;69.80;;;;;;5114397;28;20545;-69
2022/07/25 11:04:28;;;;;;;3.63;2.65;;;31.90;70.70;;;;;;5111413;28;20034;-64
2022/07/25 11:06:54;;;;;;;3.58;2.90;;;31.90;69.60;;;;;;5099856;28;20399;-67
2022/07/25 11:09:23;;;;;;;4.22;3.00;;;32.20;69.50;;;;;;5091606;28;20582;-69
2022/07/25 11:11:51;;;;;;;4.28;2.78;;;31.90;68.40;;;;;;5091760;28;20036;-78
2022/07/25 11:14:19;;;;;;;5.07;3.20;;;;;;;;;;5073467;28;20139;-74
2022/07/25 11:16:47;;;;;;;4.40;3.00;;;32.40;68.90;;;;;;5092638;28;20114;-64
2022/07/25 11:19:27;;;;;;;3.55;2.72;;;32.50;69.10;;;;;;5103939;28;20096;-64
2022/07/25 11:22:03;;;;;;;3.38;3.08;;;32.00;67.90;;;;;;5094079;28;20031;-65
2022/07/25 11:24:43;;;;;;;8.23;2.90;;;32.20;68.70;;;;;;5113789;28;20032;-65
2022/07/25 11:27:12;;;;;;;5.78;3.15;;;32.10;70.20;;;;;;5111964;28;20036;-65
2022/07/25 11:29:39;;;;;;;3.78;3.00;;;31.80;70.70;;;;;;5111781;28;20135;-65
2022/07/25 11:32:09;;;;;;;5.20;2.95;;;31.90;68.90;;;;;;5110954;28;20051;-64
2022/07/25 11:34:40;;;;;;;5.50;3.78;;;32.20;69.40;;;;;;5110990;28;20050;-65
2022/07/25 11:37:07;;;;;;;4.45;3.20;;;31.90;70.70;;;;;;5110907;28;20074;-65
2022/07/25 11:39:35;;;;;;;6.57;3.33;;;31.60;70.00;;;;;;5109091;28;20487;-64
2022/07/25 11:42:10;;;;;;;4.60;3.60;;;32.00;71.00;;;;;;5092743;28;20130;-66
2022/07/25 11:44:41;;;;;;;4.20;3.13;;;31.70;69.00;;;;;;5091280;28;20051;-64
2022/07/25 11:47:20;;;;;;;4.10;3.28;;;31.60;71.20;;;;;;5091260;28;20063;-65
2022/07/25 11:49:47;;;;;;;5.38;3.13;;;31.20;69.20;;;;;;5092338;28;20097;-64
2022/07/25 11:52:28;;;;;;;6.10;3.35;;;32.40;70.80;;;;;;5096970;28;20040;-65
2022/07/25 11:55:00;;;;;;;4.07;3.20;;;32.80;72.00;;;;;;5095159;28;20559;-65
2022/07/25 11:57:28;;;;;;;4.65;3.03;;;33.30;69.80;;;;;;5095641;28;20061;-64
2022/07/25 11:59:55;;;;;;;5.00;3.85;;;33.40;69.20;;;;;;5060557;28;20055;-63
2022/07/25 12:02:29;;;;;;;4.03;3.47;;;33.10;67.80;;;;;;5094707;28;20039;-65
2022/07/25 12:05:00;;;;;;;4.80;3.35;;;31.90;68.80;;;;;;5077125;28;20051;-65
2022/07/25 12:07:38;;;;;;;6.95;3.47;;;32.80;70.60;;;;;;5096982;28;20135;-65
2022/07/25 12:10:12;;;;;;;5.90;3.67;;;33.40;70.30;;;;;;5096128;28;20054;-65
2022/07/25 12:12:52;;;;;;;6.68;3.83;;;33.30;69.10;;;;;;5095099;28;20035;-65
2022/07/25 12:15:24;;;;;;;4.63;3.53;;;33.70;71.20;;;;;;5094744;28;20119;-65
2022/07/25 12:17:52;;;;;;;6.85;3.67;;;34.00;69.50;;;;;;5095152;28;20032;-65
2022/07/25 12:20:20;;;;;;;4.53;3.28;;;33.80;68.00;;;;;;5094045;28;20042;-66
2022/07/25 12:22:48;;;;;;;4.15;3.13;;;33.10;68.40;;;;;;5094477;28;20064;-65
2022/07/25 12:25:14;;;;;;;5.72;3.70;;;33.10;70.50;;;;;;5094775;28;20076;-67
2022/07/25 12:27:41;;;;;;;4.00;2.97;;;33.10;70.20;;;;;;5094836;28;20043;-66
2022/07/25 12:30:07;;;;;;;3.72;3.20;;;33.40;68.20;;;;;;5094706;28;20528;-65
2022/07/25 12:32:34;;;;;;;4.43;2.97;;;32.50;69.80;;;;;;5095197;28;20047;-66
2022/07/25 12:35:01;;;;;;;5.50;3.58;;;32.30;68.90;;;;;;5095375;28;20040;-69
2022/07/25 12:37:26;;;;;;;4.38;3.40;;;32.30;69.30;;;;;;5094774;28;20061;-67
2022/07/25 12:39:55;;;;;;;4.50;3.72;;;32.60;68.30;;;;;;5094952;28;20046;-66
2022/07/25 12:42:22;;;;;;;4.43;3.77;;;33.10;69.00;;;;;;5094088;28;20036;-65
2022/07/25 12:44:48;;;;;;;3.95;3.30;;;33.10;71.00;;;;;;5094488;28;20701;-65
2022/07/25 12:47:14;;;;;;;5.93;3.53;;;33.50;68.20;;;;;;5096363;28;20407;-66
2022/07/25 12:49:43;;;;;;;7.57;3.70;;;33.20;67.70;;;;;;5094805;28;20048;-65
2022/07/25 12:52:10;;;;;;;4.17;3.47;;;33.80;69.10;;;;;;5093782;28;20040;-66
2022/07/25 12:54:36;;;;;;;5.63;4.20;;;33.60;67.30;;;;;;5094012;28;20036;-66